sensor_id;sensor_type;location;lat;lon;timestamp;P1;durP1;ratioP1;P2;durP2;ratioP2
6463;SDS011;3265;42.694;23.282;2022-10-23T00:00:49;69.90;;;38.90;;
6463;SDS011;3265;42.694;23.282;2022-10-23T00:03:16;60.40;;;34.27;;
6463;SDS011;3265;42.694;23.282;2022-10-23T00:05:43;53.77;;;31.33;;
6463;SDS011;3265;42.694;23.282;2022-10-23T00:08:11;61.23;;;35.70;;
6463;SDS011;3265;42.694;23.282;2022-10-23T00:10:39;55.90;;;34.60;;
6463;SDS011;3265;42.694;23.282;2022-10-23T00:13:07;58.43;;;32.67;;
6463;SDS011;3265;42.694;23.282;2022-10-23T00:15:35;65.37;;;35.07;;
6463;SDS011;3265;42.694;23.282;2022-10-23T00:18:02;64.33;;;35.50;;
6463;SDS011;3265;42.694;23.282;2022-10-23T00:20:29;59.70;;;35.87;;
6463;SDS011;3265;42.694;23.282;2022-10-23T00:22:56;59.67;;;35.80;;
6463;SDS011;3265;42.694;23.282;2022-10-23T00:25:25;55.70;;;33.50;;
6463;SDS011;3265;42.694;23.282;2022-10-23T00:27:51;56.00;;;34.67;;
6463;SDS011;3265;42.694;23.282;2022-10-23T00:30:18;57.03;;;34.47;;
6463;SDS011;3265;42.694;23.282;2022-10-23T00:32:45;89.97;;;44.70;;
6463;SDS011;3265;42.694;23.282;2022-10-23T00:35:12;119.17;;;63.13;;
6463;SDS011;3265;42.694;23.282;2022-10-23T00:37:39;98.53;;;50.30;;
6463;SDS011;3265;42.694;23.282;2022-10-23T00:40:06;95.83;;;54.90;;
6463;SDS011;3265;42.694;23.282;2022-10-23T00:42:35;110.53;;;56.80;;
6463;SDS011;3265;42.694;23.282;2022-10-23T00:45:11;125.20;;;63.47;;
6463;SDS011;3265;42.694;23.282;2022-10-23T00:47:44;115.63;;;60.47;;
6463;SDS011;3265;42.694;23.282;2022-10-23T00:50:11;93.37;;;51.07;;
6463;SDS011;3265;42.694;23.282;2022-10-23T00:52:39;112.30;;;58.47;;
6463;SDS011;3265;42.694;23.282;2022-10-23T00:55:11;107.40;;;58.63;;
6463;SDS011;3265;42.694;23.282;2022-10-23T00:57:41;94.73;;;51.10;;
6463;SDS011;3265;42.694;23.282;2022-10-23T01:00:12;62.27;;;34.33;;
6463;SDS011;3265;42.694;23.282;2022-10-23T01:02:42;42.43;;;24.83;;
6463;SDS011;3265;42.694;23.282;2022-10-23T01:05:09;42.20;;;22.83;;
6463;SDS011;3265;42.694;23.282;2022-10-23T01:07:37;35.23;;;23.30;;
6463;SDS011;3265;42.694;23.282;2022-10-23T01:10:14;39.57;;;23.17;;
6463;SDS011;3265;42.694;23.282;2022-10-23T01:12:52;56.20;;;33.20;;
6463;SDS011;3265;42.694;23.282;2022-10-23T01:15:25;63.30;;;34.80;;
6463;SDS011;3265;42.694;23.282;2022-10-23T01:17:58;60.07;;;33.27;;
6463;SDS011;3265;42.694;23.282;2022-10-23T01:20:35;62.47;;;32.73;;
6463;SDS011;3265;42.694;23.282;2022-10-23T01:23:19;63.30;;;32.37;;
6463;SDS011;3265;42.694;23.282;2022-10-23T01:26:01;50.93;;;31.77;;
6463;SDS011;3265;42.694;23.282;2022-10-23T01:28:43;65.50;;;33.03;;
6463;SDS011;3265;42.694;23.282;2022-10-23T01:31:16;60.20;;;32.67;;
6463;SDS011;3265;42.694;23.282;2022-10-23T01:33:49;60.03;;;34.40;;
6463;SDS011;3265;42.694;23.282;2022-10-23T01:36:23;60.33;;;35.33;;
6463;SDS011;3265;42.694;23.282;2022-10-23T01:38:54;60.53;;;34.90;;
6463;SDS011;3265;42.694;23.282;2022-10-23T01:41:26;51.53;;;32.83;;
6463;SDS011;3265;42.694;23.282;2022-10-23T01:43:57;64.80;;;34.30;;
6463;SDS011;3265;42.694;23.282;2022-10-23T01:46:29;54.20;;;32.13;;
6463;SDS011;3265;42.694;23.282;2022-10-23T01:49:01;53.03;;;31.33;;
6463;SDS011;3265;42.694;23.282;2022-10-23T01:51:31;59.07;;;30.90;;
6463;SDS011;3265;42.694;23.282;2022-10-23T01:54:00;51.83;;;31.57;;
6463;SDS011;3265;42.694;23.282;2022-10-23T01:56:31;51.97;;;30.97;;
6463;SDS011;3265;42.694;23.282;2022-10-23T01:59:02;59.80;;;31.50;;
6463;SDS011;3265;42.694;23.282;2022-10-23T02:01:34;55.80;;;31.27;;
6463;SDS011;3265;42.694;23.282;2022-10-23T02:04:05;52.07;;;28.97;;
6463;SDS011;3265;42.694;23.282;2022-10-23T02:06:35;49.57;;;29.67;;
6463;SDS011;3265;42.694;23.282;2022-10-23T02:09:02;46.40;;;28.53;;
6463;SDS011;3265;42.694;23.282;2022-10-23T02:11:29;47.77;;;28.73;;
6463;SDS011;3265;42.694;23.282;2022-10-23T02:14:03;46.20;;;28.80;;
6463;SDS011;3265;42.694;23.282;2022-10-23T02:16:38;51.57;;;28.83;;
6463;SDS011;3265;42.694;23.282;2022-10-23T02:19:11;50.73;;;29.57;;
6463;SDS011;3265;42.694;23.282;2022-10-23T02:21:46;54.00;;;29.50;;
6463;SDS011;3265;42.694;23.282;2022-10-23T02:24:18;50.33;;;29.23;;
6463;SDS011;3265;42.694;23.282;2022-10-23T02:26:49;47.87;;;28.77;;
6463;SDS011;3265;42.694;23.282;2022-10-23T02:29:22;46.97;;;28.83;;
6463;SDS011;3265;42.694;23.282;2022-10-23T02:31:52;49.30;;;28.80;;
6463;SDS011;3265;42.694;23.282;2022-10-23T02:34:19;49.67;;;28.73;;
6463;SDS011;3265;42.694;23.282;2022-10-23T02:36:46;49.97;;;29.50;;
6463;SDS011;3265;42.694;23.282;2022-10-23T02:39:13;52.57;;;29.37;;
6463;SDS011;3265;42.694;23.282;2022-10-23T02:41:41;44.70;;;28.37;;
6463;SDS011;3265;42.694;23.282;2022-10-23T02:44:16;48.13;;;28.43;;
6463;SDS011;3265;42.694;23.282;2022-10-23T02:46:52;54.10;;;29.20;;
6463;SDS011;3265;42.694;23.282;2022-10-23T02:49:27;46.07;;;27.20;;
6463;SDS011;3265;42.694;23.282;2022-10-23T02:52:02;46.57;;;26.20;;
6463;SDS011;3265;42.694;23.282;2022-10-23T02:54:47;45.50;;;25.30;;
6463;SDS011;3265;42.694;23.282;2022-10-23T02:57:22;43.23;;;25.10;;
6463;SDS011;3265;42.694;23.282;2022-10-23T02:59:59;40.10;;;23.87;;
6463;SDS011;3265;42.694;23.282;2022-10-23T03:02:31;39.03;;;23.87;;
6463;SDS011;3265;42.694;23.282;2022-10-23T03:05:03;40.23;;;23.27;;
6463;SDS011;3265;42.694;23.282;2022-10-23T03:07:33;46.10;;;23.73;;
6463;SDS011;3265;42.694;23.282;2022-10-23T03:10:01;43.67;;;23.30;;
6463;SDS011;3265;42.694;23.282;2022-10-23T03:12:28;37.73;;;21.23;;
6463;SDS011;3265;42.694;23.282;2022-10-23T03:14:54;43.97;;;22.57;;
6463;SDS011;3265;42.694;23.282;2022-10-23T03:17:23;39.27;;;22.40;;
6463;SDS011;3265;42.694;23.282;2022-10-23T03:19:52;41.37;;;24.40;;
6463;SDS011;3265;42.694;23.282;2022-10-23T03:22:19;41.60;;;24.40;;
6463;SDS011;3265;42.694;23.282;2022-10-23T03:24:46;49.00;;;25.17;;
6463;SDS011;3265;42.694;23.282;2022-10-23T03:27:13;40.73;;;23.73;;
6463;SDS011;3265;42.694;23.282;2022-10-23T03:29:40;40.13;;;23.80;;
6463;SDS011;3265;42.694;23.282;2022-10-23T03:32:07;39.23;;;23.17;;
6463;SDS011;3265;42.694;23.282;2022-10-23T03:34:35;46.57;;;24.70;;
6463;SDS011;3265;42.694;23.282;2022-10-23T03:37:02;41.70;;;24.17;;
6463;SDS011;3265;42.694;23.282;2022-10-23T03:39:29;43.67;;;23.93;;
6463;SDS011;3265;42.694;23.282;2022-10-23T03:41:56;36.67;;;23.47;;
6463;SDS011;3265;42.694;23.282;2022-10-23T03:44:25;40.47;;;24.00;;
6463;SDS011;3265;42.694;23.282;2022-10-23T03:46:52;39.20;;;23.13;;
6463;SDS011;3265;42.694;23.282;2022-10-23T03:49:19;39.03;;;24.40;;
6463;SDS011;3265;42.694;23.282;2022-10-23T03:51:47;40.73;;;23.57;;
6463;SDS011;3265;42.694;23.282;2022-10-23T03:54:17;38.67;;;24.00;;
6463;SDS011;3265;42.694;23.282;2022-10-23T03:56:48;41.50;;;24.47;;
6463;SDS011;3265;42.694;23.282;2022-10-23T03:59:15;38.27;;;22.13;;
6463;SDS011;3265;42.694;23.282;2022-10-23T04:01:42;43.43;;;22.07;;
6463;SDS011;3265;42.694;23.282;2022-10-23T04:04:09;42.23;;;22.33;;
6463;SDS011;3265;42.694;23.282;2022-10-23T04:06:36;39.93;;;22.20;;
6463;SDS011;3265;42.694;23.282;2022-10-23T04:09:05;42.03;;;23.73;;
6463;SDS011;3265;42.694;23.282;2022-10-23T04:11:33;36.43;;;23.33;;
6463;SDS011;3265;42.694;23.282;2022-10-23T04:14:01;36.60;;;19.37;;
6463;SDS011;3265;42.694;23.282;2022-10-23T04:16:28;32.70;;;16.73;;
6463;SDS011;3265;42.694;23.282;2022-10-23T04:18:55;26.80;;;15.13;;
6463;SDS011;3265;42.694;23.282;2022-10-23T04:21:22;26.63;;;12.47;;
6463;SDS011;3265;42.694;23.282;2022-10-23T04:23:48;23.13;;;10.70;;
6463;SDS011;3265;42.694;23.282;2022-10-23T04:26:17;24.27;;;11.53;;
6463;SDS011;3265;42.694;23.282;2022-10-23T04:28:43;20.63;;;11.07;;
6463;SDS011;3265;42.694;23.282;2022-10-23T04:31:10;23.17;;;10.57;;
6463;SDS011;3265;42.694;23.282;2022-10-23T04:33:38;19.40;;;9.13;;
6463;SDS011;3265;42.694;23.282;2022-10-23T04:36:05;24.00;;;9.47;;
6463;SDS011;3265;42.694;23.282;2022-10-23T04:38:32;16.93;;;8.10;;
6463;SDS011;3265;42.694;23.282;2022-10-23T04:40:59;14.70;;;8.00;;
6463;SDS011;3265;42.694;23.282;2022-10-23T04:43:27;16.13;;;7.77;;
6463;SDS011;3265;42.694;23.282;2022-10-23T04:45:54;15.60;;;8.17;;
6463;SDS011;3265;42.694;23.282;2022-10-23T04:48:21;17.07;;;7.93;;
6463;SDS011;3265;42.694;23.282;2022-10-23T04:50:53;16.50;;;8.00;;
6463;SDS011;3265;42.694;23.282;2022-10-23T04:53:21;15.93;;;7.30;;
6463;SDS011;3265;42.694;23.282;2022-10-23T04:55:49;21.17;;;8.73;;
6463;SDS011;3265;42.694;23.282;2022-10-23T04:58:17;18.67;;;8.70;;
6463;SDS011;3265;42.694;23.282;2022-10-23T05:00:46;14.07;;;7.97;;
6463;SDS011;3265;42.694;23.282;2022-10-23T05:03:13;17.77;;;9.20;;
6463;SDS011;3265;42.694;23.282;2022-10-23T05:05:40;19.93;;;9.17;;
6463;SDS011;3265;42.694;23.282;2022-10-23T05:08:08;13.47;;;7.87;;
6463;SDS011;3265;42.694;23.282;2022-10-23T05:10:35;12.87;;;7.40;;
6463;SDS011;3265;42.694;23.282;2022-10-23T05:13:02;12.40;;;7.27;;
6463;SDS011;3265;42.694;23.282;2022-10-23T05:15:30;18.47;;;8.23;;
6463;SDS011;3265;42.694;23.282;2022-10-23T05:17:58;20.30;;;9.40;;
6463;SDS011;3265;42.694;23.282;2022-10-23T05:20:30;20.57;;;9.10;;
6463;SDS011;3265;42.694;23.282;2022-10-23T05:23:00;26.47;;;10.67;;
6463;SDS011;3265;42.694;23.282;2022-10-23T05:25:29;21.87;;;9.27;;
6463;SDS011;3265;42.694;23.282;2022-10-23T05:27:55;21.23;;;10.23;;
6463;SDS011;3265;42.694;23.282;2022-10-23T05:30:22;18.33;;;10.67;;
6463;SDS011;3265;42.694;23.282;2022-10-23T05:32:49;18.83;;;10.37;;
6463;SDS011;3265;42.694;23.282;2022-10-23T05:35:18;21.37;;;10.40;;
6463;SDS011;3265;42.694;23.282;2022-10-23T05:37:48;20.73;;;10.13;;
6463;SDS011;3265;42.694;23.282;2022-10-23T05:40:17;24.13;;;8.80;;
6463;SDS011;3265;42.694;23.282;2022-10-23T05:42:44;18.93;;;10.03;;
6463;SDS011;3265;42.694;23.282;2022-10-23T05:45:11;16.97;;;9.43;;
6463;SDS011;3265;42.694;23.282;2022-10-23T05:47:38;20.67;;;9.73;;
6463;SDS011;3265;42.694;23.282;2022-10-23T05:50:05;20.90;;;9.23;;
6463;SDS011;3265;42.694;23.282;2022-10-23T05:52:34;21.63;;;9.50;;
6463;SDS011;3265;42.694;23.282;2022-10-23T05:55:00;16.97;;;9.10;;
6463;SDS011;3265;42.694;23.282;2022-10-23T05:57:30;17.17;;;8.97;;
6463;SDS011;3265;42.694;23.282;2022-10-23T05:59:57;24.37;;;9.10;;
6463;SDS011;3265;42.694;23.282;2022-10-23T06:02:24;21.63;;;8.63;;
6463;SDS011;3265;42.694;23.282;2022-10-23T06:04:51;13.67;;;8.20;;
6463;SDS011;3265;42.694;23.282;2022-10-23T06:07:21;16.20;;;8.20;;
6463;SDS011;3265;42.694;23.282;2022-10-23T06:09:50;17.67;;;8.63;;
6463;SDS011;3265;42.694;23.282;2022-10-23T06:12:18;19.43;;;8.77;;
6463;SDS011;3265;42.694;23.282;2022-10-23T06:14:45;17.30;;;8.73;;
6463;SDS011;3265;42.694;23.282;2022-10-23T06:17:12;20.37;;;10.10;;
6463;SDS011;3265;42.694;23.282;2022-10-23T06:19:39;17.90;;;9.80;;
6463;SDS011;3265;42.694;23.282;2022-10-23T06:22:06;15.27;;;8.77;;
6463;SDS011;3265;42.694;23.282;2022-10-23T06:24:33;16.57;;;8.77;;
6463;SDS011;3265;42.694;23.282;2022-10-23T06:27:01;16.53;;;8.10;;
6463;SDS011;3265;42.694;23.282;2022-10-23T06:29:29;21.13;;;8.57;;
6463;SDS011;3265;42.694;23.282;2022-10-23T06:31:56;18.63;;;9.10;;
6463;SDS011;3265;42.694;23.282;2022-10-23T06:34:22;22.60;;;8.90;;
6463;SDS011;3265;42.694;23.282;2022-10-23T06:36:49;17.00;;;8.27;;
6463;SDS011;3265;42.694;23.282;2022-10-23T06:39:16;14.17;;;7.30;;
6463;SDS011;3265;42.694;23.282;2022-10-23T06:41:44;13.27;;;7.97;;
6463;SDS011;3265;42.694;23.282;2022-10-23T06:44:13;16.40;;;8.10;;
6463;SDS011;3265;42.694;23.282;2022-10-23T06:46:39;11.37;;;7.50;;
6463;SDS011;3265;42.694;23.282;2022-10-23T06:49:06;10.67;;;7.07;;
6463;SDS011;3265;42.694;23.282;2022-10-23T06:51:33;12.67;;;8.03;;
6463;SDS011;3265;42.694;23.282;2022-10-23T06:54:00;14.27;;;7.83;;
6463;SDS011;3265;42.694;23.282;2022-10-23T06:56:27;13.13;;;7.83;;
6463;SDS011;3265;42.694;23.282;2022-10-23T06:58:54;9.43;;;7.23;;
6463;SDS011;3265;42.694;23.282;2022-10-23T07:01:23;10.57;;;6.93;;
6463;SDS011;3265;42.694;23.282;2022-10-23T07:03:49;13.67;;;7.70;;
6463;SDS011;3265;42.694;23.282;2022-10-23T07:06:16;15.03;;;7.90;;
6463;SDS011;3265;42.694;23.282;2022-10-23T07:08:43;11.97;;;7.53;;
6463;SDS011;3265;42.694;23.282;2022-10-23T07:11:13;13.77;;;7.30;;
6463;SDS011;3265;42.694;23.282;2022-10-23T07:13:40;15.53;;;8.20;;
6463;SDS011;3265;42.694;23.282;2022-10-23T07:16:10;20.30;;;8.23;;
6463;SDS011;3265;42.694;23.282;2022-10-23T07:18:39;19.40;;;9.00;;
6463;SDS011;3265;42.694;23.282;2022-10-23T07:21:06;12.80;;;7.77;;
6463;SDS011;3265;42.694;23.282;2022-10-23T07:23:33;11.53;;;7.47;;
6463;SDS011;3265;42.694;23.282;2022-10-23T07:26:04;12.00;;;7.70;;
6463;SDS011;3265;42.694;23.282;2022-10-23T07:28:32;14.07;;;8.40;;
6463;SDS011;3265;42.694;23.282;2022-10-23T07:30:59;12.70;;;7.70;;
6463;SDS011;3265;42.694;23.282;2022-10-23T07:33:26;10.37;;;6.97;;
6463;SDS011;3265;42.694;23.282;2022-10-23T07:35:55;12.77;;;7.23;;
6463;SDS011;3265;42.694;23.282;2022-10-23T07:38:22;20.73;;;8.30;;
6463;SDS011;3265;42.694;23.282;2022-10-23T07:40:48;17.93;;;7.83;;
6463;SDS011;3265;42.694;23.282;2022-10-23T07:43:15;12.97;;;6.93;;
6463;SDS011;3265;42.694;23.282;2022-10-23T07:45:45;17.53;;;8.03;;
6463;SDS011;3265;42.694;23.282;2022-10-23T07:48:13;15.77;;;7.43;;
6463;SDS011;3265;42.694;23.282;2022-10-23T07:50:40;15.80;;;7.03;;
6463;SDS011;3265;42.694;23.282;2022-10-23T07:53:09;18.50;;;7.53;;
6463;SDS011;3265;42.694;23.282;2022-10-23T07:55:42;14.80;;;7.27;;
6463;SDS011;3265;42.694;23.282;2022-10-23T07:58:08;12.03;;;6.23;;
6463;SDS011;3265;42.694;23.282;2022-10-23T08:00:37;9.57;;;6.00;;
6463;SDS011;3265;42.694;23.282;2022-10-23T08:03:05;8.20;;;5.60;;
6463;SDS011;3265;42.694;23.282;2022-10-23T08:05:32;11.57;;;6.20;;
6463;SDS011;3265;42.694;23.282;2022-10-23T08:07:59;12.63;;;6.20;;
6463;SDS011;3265;42.694;23.282;2022-10-23T08:10:27;14.47;;;6.60;;
6463;SDS011;3265;42.694;23.282;2022-10-23T08:12:54;16.43;;;7.60;;
6463;SDS011;3265;42.694;23.282;2022-10-23T08:15:21;11.80;;;5.67;;
6463;SDS011;3265;42.694;23.282;2022-10-23T08:17:48;29.03;;;6.60;;
6463;SDS011;3265;42.694;23.282;2022-10-23T08:20:15;16.23;;;5.97;;
6463;SDS011;3265;42.694;23.282;2022-10-23T08:22:42;12.20;;;6.07;;
6463;SDS011;3265;42.694;23.282;2022-10-23T08:25:09;13.00;;;5.93;;
6463;SDS011;3265;42.694;23.282;2022-10-23T08:27:38;11.07;;;6.13;;
6463;SDS011;3265;42.694;23.282;2022-10-23T08:30:05;9.67;;;6.37;;
6463;SDS011;3265;42.694;23.282;2022-10-23T08:32:32;19.40;;;5.90;;
6463;SDS011;3265;42.694;23.282;2022-10-23T08:34:59;8.53;;;5.27;;
6463;SDS011;3265;42.694;23.282;2022-10-23T08:37:26;10.60;;;5.33;;
6463;SDS011;3265;42.694;23.282;2022-10-23T08:39:52;13.37;;;5.43;;
6463;SDS011;3265;42.694;23.282;2022-10-23T08:42:20;8.13;;;5.40;;
6463;SDS011;3265;42.694;23.282;2022-10-23T08:44:54;13.93;;;5.60;;
6463;SDS011;3265;42.694;23.282;2022-10-23T08:47:28;10.53;;;5.10;;
6463;SDS011;3265;42.694;23.282;2022-10-23T08:50:02;9.50;;;5.20;;
6463;SDS011;3265;42.694;23.282;2022-10-23T08:52:38;7.32;;;4.85;;
6463;SDS011;3265;42.694;23.282;2022-10-23T08:55:12;13.25;;;5.05;;
6463;SDS011;3265;42.694;23.282;2022-10-23T08:57:44;12.05;;;5.00;;
6463;SDS011;3265;42.694;23.282;2022-10-23T09:00:18;10.15;;;4.72;;
6463;SDS011;3265;42.694;23.282;2022-10-23T09:02:46;9.07;;;5.30;;
6463;SDS011;3265;42.694;23.282;2022-10-23T09:05:16;6.38;;;4.70;;
6463;SDS011;3265;42.694;23.282;2022-10-23T09:07:51;10.63;;;4.80;;
6463;SDS011;3265;42.694;23.282;2022-10-23T09:13:39;9.73;;;5.18;;
6463;SDS011;3265;42.694;23.282;2022-10-23T09:16:38;7.85;;;4.60;;
6463;SDS011;3265;42.694;23.282;2022-10-23T09:19:16;5.65;;;4.25;;
6463;SDS011;3265;42.694;23.282;2022-10-23T09:21:45;7.30;;;4.50;;
6463;SDS011;3265;42.694;23.282;2022-10-23T09:24:15;8.18;;;4.25;;
6463;SDS011;3265;42.694;23.282;2022-10-23T09:26:43;10.98;;;4.57;;
6463;SDS011;3265;42.694;23.282;2022-10-23T09:29:16;12.88;;;5.60;;
6463;SDS011;3265;42.694;23.282;2022-10-23T09:31:49;7.75;;;5.75;;
6463;SDS011;3265;42.694;23.282;2022-10-23T09:34:18;9.60;;;5.50;;
6463;SDS011;3265;42.694;23.282;2022-10-23T09:36:48;8.60;;;4.30;;
6463;SDS011;3265;42.694;23.282;2022-10-23T09:39:21;8.02;;;5.00;;
6463;SDS011;3265;42.694;23.282;2022-10-23T09:41:50;12.73;;;6.22;;
6463;SDS011;3265;42.694;23.282;2022-10-23T09:44:18;9.32;;;5.75;;
6463;SDS011;3265;42.694;23.282;2022-10-23T09:46:48;5.55;;;3.80;;
6463;SDS011;3265;42.694;23.282;2022-10-23T09:49:19;6.30;;;4.00;;
6463;SDS011;3265;42.694;23.282;2022-10-23T09:51:50;5.15;;;3.53;;
6463;SDS011;3265;42.694;23.282;2022-10-23T09:54:21;8.35;;;3.80;;
6463;SDS011;3265;42.694;23.282;2022-10-23T09:56:49;9.43;;;4.00;;
6463;SDS011;3265;42.694;23.282;2022-10-23T09:59:20;8.52;;;3.63;;
6463;SDS011;3265;42.694;23.282;2022-10-23T10:01:52;8.82;;;3.42;;
6463;SDS011;3265;42.694;23.282;2022-10-23T10:04:29;6.10;;;3.50;;
6463;SDS011;3265;42.694;23.282;2022-10-23T10:07:00;9.55;;;4.15;;
6463;SDS011;3265;42.694;23.282;2022-10-23T10:09:28;7.88;;;3.22;;
6463;SDS011;3265;42.694;23.282;2022-10-23T10:11:55;9.63;;;4.25;;
6463;SDS011;3265;42.694;23.282;2022-10-23T10:14:46;6.47;;;3.63;;
6463;SDS011;3265;42.694;23.282;2022-10-23T10:17:22;5.50;;;3.20;;
6463;SDS011;3265;42.694;23.282;2022-10-23T10:20:03;5.07;;;3.15;;
6463;SDS011;3265;42.694;23.282;2022-10-23T10:22:49;4.28;;;3.00;;
6463;SDS011;3265;42.694;23.282;2022-10-23T10:25:22;6.43;;;2.90;;
6463;SDS011;3265;42.694;23.282;2022-10-23T10:27:59;4.75;;;2.90;;
6463;SDS011;3265;42.694;23.282;2022-10-23T10:30:43;4.20;;;2.80;;
6463;SDS011;3265;42.694;23.282;2022-10-23T10:33:23;3.92;;;2.80;;
6463;SDS011;3265;42.694;23.282;2022-10-23T10:35:58;6.15;;;2.80;;
6463;SDS011;3265;42.694;23.282;2022-10-23T10:38:34;4.50;;;2.88;;
6463;SDS011;3265;42.694;23.282;2022-10-23T10:41:27;4.25;;;3.13;;
6463;SDS011;3265;42.694;23.282;2022-10-23T10:47:10;4.43;;;3.00;;
6463;SDS011;3265;42.694;23.282;2022-10-23T10:49:44;8.52;;;2.85;;
6463;SDS011;3265;42.694;23.282;2022-10-23T10:52:21;8.57;;;2.70;;
6463;SDS011;3265;42.694;23.282;2022-10-23T10:54:56;6.00;;;2.65;;
6463;SDS011;3265;42.694;23.282;2022-10-23T10:57:30;4.72;;;3.03;;
6463;SDS011;3265;42.694;23.282;2022-10-23T11:00:00;4.90;;;2.90;;
6463;SDS011;3265;42.694;23.282;2022-10-23T11:02:30;5.40;;;3.50;;
6463;SDS011;3265;42.694;23.282;2022-10-23T11:05:11;5.05;;;2.78;;
6463;SDS011;3265;42.694;23.282;2022-10-23T11:07:48;5.57;;;2.88;;
6463;SDS011;3265;42.694;23.282;2022-10-23T11:10:19;4.05;;;2.60;;
6463;SDS011;3265;42.694;23.282;2022-10-23T11:12:46;5.53;;;2.80;;
6463;SDS011;3265;42.694;23.282;2022-10-23T11:15:15;4.65;;;2.78;;
6463;SDS011;3265;42.694;23.282;2022-10-23T11:17:45;6.72;;;3.00;;
6463;SDS011;3265;42.694;23.282;2022-10-23T11:20:23;3.92;;;2.80;;
6463;SDS011;3265;42.694;23.282;2022-10-23T11:23:04;5.45;;;3.00;;
6463;SDS011;3265;42.694;23.282;2022-10-23T11:25:49;8.82;;;2.88;;
6463;SDS011;3265;42.694;23.282;2022-10-23T11:28:32;3.80;;;2.50;;
6463;SDS011;3265;42.694;23.282;2022-10-23T11:31:16;3.00;;;2.70;;
6463;SDS011;3265;42.694;23.282;2022-10-23T11:33:54;6.18;;;2.90;;
6463;SDS011;3265;42.694;23.282;2022-10-23T11:36:40;8.68;;;3.30;;
6463;SDS011;3265;42.694;23.282;2022-10-23T11:39:20;5.20;;;3.00;;
6463;SDS011;3265;42.694;23.282;2022-10-23T11:41:51;3.17;;;2.50;;
6463;SDS011;3265;42.694;23.282;2022-10-23T11:44:27;4.25;;;3.00;;
6463;SDS011;3265;42.694;23.282;2022-10-23T11:47:23;3.72;;;2.50;;
6463;SDS011;3265;42.694;23.282;2022-10-23T11:50:03;6.70;;;2.60;;
6463;SDS011;3265;42.694;23.282;2022-10-23T11:52:40;4.63;;;2.40;;
6463;SDS011;3265;42.694;23.282;2022-10-23T11:55:20;3.20;;;2.47;;
6463;SDS011;3265;42.694;23.282;2022-10-23T11:58:08;4.20;;;2.60;;
6463;SDS011;3265;42.694;23.282;2022-10-23T12:00:51;7.43;;;2.85;;
6463;SDS011;3265;42.694;23.282;2022-10-23T12:03:23;4.88;;;2.55;;
6463;SDS011;3265;42.694;23.282;2022-10-23T12:05:56;7.85;;;2.67;;
6463;SDS011;3265;42.694;23.282;2022-10-23T12:08:29;5.63;;;2.60;;
6463;SDS011;3265;42.694;23.282;2022-10-23T12:10:57;3.45;;;2.47;;
6463;SDS011;3265;42.694;23.282;2022-10-23T12:13:28;3.05;;;2.40;;
6463;SDS011;3265;42.694;23.282;2022-10-23T12:16:07;3.40;;;2.67;;
6463;SDS011;3265;42.694;23.282;2022-10-23T12:18:43;5.05;;;2.50;;
6463;SDS011;3265;42.694;23.282;2022-10-23T12:21:12;3.72;;;2.70;;
6463;SDS011;3265;42.694;23.282;2022-10-23T12:23:49;3.17;;;2.42;;
6463;SDS011;3265;42.694;23.282;2022-10-23T12:29:26;2.78;;;2.50;;
6463;SDS011;3265;42.694;23.282;2022-10-23T12:32:03;4.05;;;2.45;;
6463;SDS011;3265;42.694;23.282;2022-10-23T12:34:44;3.40;;;2.47;;
6463;SDS011;3265;42.694;23.282;2022-10-23T12:37:26;2.50;;;2.28;;
6463;SDS011;3265;42.694;23.282;2022-10-23T12:40:10;3.95;;;2.20;;
6463;SDS011;3265;42.694;23.282;2022-10-23T12:42:37;3.20;;;2.45;;
6463;SDS011;3265;42.694;23.282;2022-10-23T12:45:11;5.80;;;2.50;;
6463;SDS011;3265;42.694;23.282;2022-10-23T12:47:42;7.57;;;2.75;;
6463;SDS011;3265;42.694;23.282;2022-10-23T12:50:15;3.67;;;2.10;;
6463;SDS011;3265;42.694;23.282;2022-10-23T12:52:49;4.32;;;2.70;;
6463;SDS011;3265;42.694;23.282;2022-10-23T12:55:18;10.65;;;3.00;;
6463;SDS011;3265;42.694;23.282;2022-10-23T12:57:45;4.10;;;2.78;;
6463;SDS011;3265;42.694;23.282;2022-10-23T13:00:13;4.80;;;2.30;;
6463;SDS011;3265;42.694;23.282;2022-10-23T13:02:43;2.22;;;2.03;;
6463;SDS011;3265;42.694;23.282;2022-10-23T13:05:18;4.18;;;2.17;;
6463;SDS011;3265;42.694;23.282;2022-10-23T13:07:46;6.75;;;2.20;;
6463;SDS011;3265;42.694;23.282;2022-10-23T13:10:14;4.10;;;2.40;;
6463;SDS011;3265;42.694;23.282;2022-10-23T13:12:46;4.28;;;1.90;;
6463;SDS011;3265;42.694;23.282;2022-10-23T13:15:19;3.85;;;2.08;;
6463;SDS011;3265;42.694;23.282;2022-10-23T13:17:57;4.57;;;2.10;;
6463;SDS011;3265;42.694;23.282;2022-10-23T13:20:26;4.43;;;2.22;;
6463;SDS011;3265;42.694;23.282;2022-10-23T13:22:56;6.95;;;2.10;;
6463;SDS011;3265;42.694;23.282;2022-10-23T13:25:25;8.55;;;2.53;;
6463;SDS011;3265;42.694;23.282;2022-10-23T13:30:57;5.13;;;2.40;;
6463;SDS011;3265;42.694;23.282;2022-10-23T13:33:29;3.33;;;2.28;;
6463;SDS011;3265;42.694;23.282;2022-10-23T13:35:58;4.65;;;2.67;;
6463;SDS011;3265;42.694;23.282;2022-10-23T13:38:27;4.63;;;2.00;;
6463;SDS011;3265;42.694;23.282;2022-10-23T13:40:55;3.08;;;2.17;;
6463;SDS011;3265;42.694;23.282;2022-10-23T13:43:26;3.33;;;2.30;;
6463;SDS011;3265;42.694;23.282;2022-10-23T13:45:55;2.28;;;1.90;;
6463;SDS011;3265;42.694;23.282;2022-10-23T13:48:22;4.20;;;2.05;;
6463;SDS011;3265;42.694;23.282;2022-10-23T13:50:49;4.88;;;2.25;;
6463;SDS011;3265;42.694;23.282;2022-10-23T13:53:16;2.70;;;2.20;;
6463;SDS011;3265;42.694;23.282;2022-10-23T13:55:43;3.25;;;2.20;;
6463;SDS011;3265;42.694;23.282;2022-10-23T13:58:12;3.78;;;2.50;;
6463;SDS011;3265;42.694;23.282;2022-10-23T14:00:41;4.18;;;2.47;;
6463;SDS011;3265;42.694;23.282;2022-10-23T14:03:09;3.45;;;2.50;;
6463;SDS011;3265;42.694;23.282;2022-10-23T14:05:36;5.15;;;2.53;;
6463;SDS011;3265;42.694;23.282;2022-10-23T14:08:03;2.60;;;2.40;;
6463;SDS011;3265;42.694;23.282;2022-10-23T14:10:30;5.78;;;2.53;;
6463;SDS011;3265;42.694;23.282;2022-10-23T14:12:57;4.60;;;2.85;;
6463;SDS011;3265;42.694;23.282;2022-10-23T14:15:24;10.60;;;3.40;;
6463;SDS011;3265;42.694;23.282;2022-10-23T14:17:52;4.75;;;3.20;;
6463;SDS011;3265;42.694;23.282;2022-10-23T14:20:19;5.88;;;3.50;;
6463;SDS011;3265;42.694;23.282;2022-10-23T14:22:46;5.63;;;3.75;;
6463;SDS011;3265;42.694;23.282;2022-10-23T14:25:13;6.05;;;3.22;;
6463;SDS011;3265;42.694;23.282;2022-10-23T14:27:40;3.97;;;3.40;;
6463;SDS011;3265;42.694;23.282;2022-10-23T14:30:07;4.68;;;2.97;;
6463;SDS011;3265;42.694;23.282;2022-10-23T14:32:34;4.00;;;2.97;;
6463;SDS011;3265;42.694;23.282;2022-10-23T14:35:03;4.57;;;3.08;;
6463;SDS011;3265;42.694;23.282;2022-10-23T14:37:30;4.97;;;3.25;;
6463;SDS011;3265;42.694;23.282;2022-10-23T14:39:58;4.70;;;3.38;;
6463;SDS011;3265;42.694;23.282;2022-10-23T14:42:25;7.43;;;3.70;;
6463;SDS011;3265;42.694;23.282;2022-10-23T14:44:58;5.30;;;3.10;;
6463;SDS011;3265;42.694;23.282;2022-10-23T14:47:24;6.40;;;3.53;;
6463;SDS011;3265;42.694;23.282;2022-10-23T14:49:51;9.45;;;4.40;;
6463;SDS011;3265;42.694;23.282;2022-10-23T14:52:20;5.18;;;3.92;;
6463;SDS011;3265;42.694;23.282;2022-10-23T14:54:46;10.35;;;4.40;;
6463;SDS011;3265;42.694;23.282;2022-10-23T14:57:13;8.48;;;4.50;;
6463;SDS011;3265;42.694;23.282;2022-10-23T14:59:42;5.38;;;3.92;;
6463;SDS011;3265;42.694;23.282;2022-10-23T15:02:09;7.78;;;4.63;;
6463;SDS011;3265;42.694;23.282;2022-10-23T15:04:36;9.80;;;5.70;;
6463;SDS011;3265;42.694;23.282;2022-10-23T15:07:03;11.70;;;5.40;;
6463;SDS011;3265;42.694;23.282;2022-10-23T15:09:32;7.20;;;4.72;;
6463;SDS011;3265;42.694;23.282;2022-10-23T15:12:00;8.65;;;5.20;;
6463;SDS011;3265;42.694;23.282;2022-10-23T15:14:28;11.30;;;5.32;;
6463;SDS011;3265;42.694;23.282;2022-10-23T15:16:55;7.22;;;5.15;;
6463;SDS011;3265;42.694;23.282;2022-10-23T15:19:22;12.52;;;5.30;;